sensor_id;sensor_type;location;lat;lon;timestamp;P1;durP1;ratioP1;P2;durP2;ratioP2
79243;SDS011;68672;42.676;23.356;2023-07-29T00:02:17;3.85;;;2.70;;
79243;SDS011;68672;42.676;23.356;2023-07-29T00:04:42;4.13;;;3.17;;
79243;SDS011;68672;42.676;23.356;2023-07-29T00:07:07;4.43;;;2.88;;
79243;SDS011;68672;42.676;23.356;2023-07-29T00:09:33;4.20;;;2.90;;
79243;SDS011;68672;42.676;23.356;2023-07-29T00:11:58;4.20;;;2.85;;
79243;SDS011;68672;42.676;23.356;2023-07-29T00:14:24;3.45;;;2.42;;
79243;SDS011;68672;42.676;23.356;2023-07-29T00:16:49;3.42;;;2.72;;
79243;SDS011;68672;42.676;23.356;2023-07-29T00:19:15;4.68;;;3.00;;
79243;SDS011;68672;42.676;23.356;2023-07-29T00:21:40;4.40;;;2.65;;
79243;SDS011;68672;42.676;23.356;2023-07-29T00:24:06;4.85;;;2.78;;
79243;SDS011;68672;42.676;23.356;2023-07-29T00:26:31;3.35;;;2.42;;
79243;SDS011;68672;42.676;23.356;2023-07-29T00:28:57;3.38;;;2.83;;
79243;SDS011;68672;42.676;23.356;2023-07-29T00:31:23;3.50;;;2.65;;
79243;SDS011;68672;42.676;23.356;2023-07-29T00:33:48;3.45;;;2.88;;
79243;SDS011;68672;42.676;23.356;2023-07-29T00:36:14;4.57;;;3.05;;
79243;SDS011;68672;42.676;23.356;2023-07-29T00:38:39;3.30;;;2.88;;
79243;SDS011;68672;42.676;23.356;2023-07-29T00:41:05;3.03;;;2.50;;
79243;SDS011;68672;42.676;23.356;2023-07-29T00:43:30;3.33;;;2.83;;
79243;SDS011;68672;42.676;23.356;2023-07-29T00:45:56;6.80;;;2.78;;
79243;SDS011;68672;42.676;23.356;2023-07-29T00:48:22;5.25;;;2.67;;
79243;SDS011;68672;42.676;23.356;2023-07-29T00:50:51;3.15;;;2.67;;
79243;SDS011;68672;42.676;23.356;2023-07-29T00:53:16;4.07;;;2.78;;
79243;SDS011;68672;42.676;23.356;2023-07-29T00:55:45;3.67;;;2.58;;
79243;SDS011;68672;42.676;23.356;2023-07-29T00:58:10;3.53;;;2.75;;
79243;SDS011;68672;42.676;23.356;2023-07-29T01:00:35;7.63;;;3.03;;
79243;SDS011;68672;42.676;23.356;2023-07-29T01:03:01;3.92;;;2.60;;
79243;SDS011;68672;42.676;23.356;2023-07-29T01:05:32;4.15;;;2.80;;
79243;SDS011;68672;42.676;23.356;2023-07-29T01:08:07;3.95;;;2.75;;
79243;SDS011;68672;42.676;23.356;2023-07-29T01:13:49;4.25;;;2.72;;
79243;SDS011;68672;42.676;23.356;2023-07-29T01:22:15;2.70;;;2.30;;
79243;SDS011;68672;42.676;23.356;2023-07-29T01:24:42;5.38;;;3.17;;
79243;SDS011;68672;42.676;23.356;2023-07-29T01:27:07;3.03;;;2.72;;
79243;SDS011;68672;42.676;23.356;2023-07-29T01:29:33;3.80;;;2.90;;
79243;SDS011;68672;42.676;23.356;2023-07-29T01:32:01;4.45;;;3.10;;
79243;SDS011;68672;42.676;23.356;2023-07-29T01:34:45;3.95;;;2.95;;
79243;SDS011;68672;42.676;23.356;2023-07-29T01:37:19;6.13;;;2.90;;
79243;SDS011;68672;42.676;23.356;2023-07-29T01:39:50;3.97;;;2.58;;
79243;SDS011;68672;42.676;23.356;2023-07-29T01:42:21;3.22;;;2.85;;
79243;SDS011;68672;42.676;23.356;2023-07-29T01:44:48;3.85;;;2.83;;
79243;SDS011;68672;42.676;23.356;2023-07-29T01:47:13;3.70;;;2.90;;
79243;SDS011;68672;42.676;23.356;2023-07-29T01:49:39;4.00;;;3.20;;
79243;SDS011;68672;42.676;23.356;2023-07-29T01:52:04;3.55;;;2.85;;
79243;SDS011;68672;42.676;23.356;2023-07-29T01:54:30;4.60;;;3.03;;
79243;SDS011;68672;42.676;23.356;2023-07-29T01:56:58;4.50;;;3.10;;
79243;SDS011;68672;42.676;23.356;2023-07-29T01:59:26;3.67;;;2.63;;
79243;SDS011;68672;42.676;23.356;2023-07-29T02:01:52;3.35;;;2.83;;
79243;SDS011;68672;42.676;23.356;2023-07-29T02:04:20;4.85;;;2.92;;
79243;SDS011;68672;42.676;23.356;2023-07-29T02:06:45;3.33;;;2.65;;
79243;SDS011;68672;42.676;23.356;2023-07-29T02:09:11;6.28;;;3.35;;
79243;SDS011;68672;42.676;23.356;2023-07-29T02:11:36;3.05;;;2.70;;
79243;SDS011;68672;42.676;23.356;2023-07-29T02:14:02;3.55;;;3.17;;
79243;SDS011;68672;42.676;23.356;2023-07-29T02:16:28;4.30;;;2.88;;
79243;SDS011;68672;42.676;23.356;2023-07-29T02:18:54;4.25;;;2.90;;
79243;SDS011;68672;42.676;23.356;2023-07-29T02:21:19;4.15;;;2.95;;
79243;SDS011;68672;42.676;23.356;2023-07-29T02:23:45;4.88;;;3.60;;
79243;SDS011;68672;42.676;23.356;2023-07-29T02:26:10;4.13;;;2.88;;
79243;SDS011;68672;42.676;23.356;2023-07-29T02:28:36;3.63;;;2.90;;
79243;SDS011;68672;42.676;23.356;2023-07-29T02:33:44;3.63;;;2.85;;
79243;SDS011;68672;42.676;23.356;2023-07-29T02:36:11;4.25;;;2.83;;
79243;SDS011;68672;42.676;23.356;2023-07-29T02:38:38;4.72;;;3.20;;
79243;SDS011;68672;42.676;23.356;2023-07-29T02:41:07;2.80;;;2.42;;
79243;SDS011;68672;42.676;23.356;2023-07-29T02:43:34;4.35;;;3.20;;
79243;SDS011;68672;42.676;23.356;2023-07-29T02:46:00;4.20;;;2.95;;
79243;SDS011;68672;42.676;23.356;2023-07-29T02:48:26;3.97;;;3.03;;
79243;SDS011;68672;42.676;23.356;2023-07-29T02:50:53;4.00;;;3.35;;
79243;SDS011;68672;42.676;23.356;2023-07-29T02:53:19;3.53;;;3.10;;
79243;SDS011;68672;42.676;23.356;2023-07-29T02:55:44;4.13;;;2.92;;
79243;SDS011;68672;42.676;23.356;2023-07-29T02:58:10;4.05;;;2.67;;
79243;SDS011;68672;42.676;23.356;2023-07-29T03:00:35;3.97;;;3.20;;
79243;SDS011;68672;42.676;23.356;2023-07-29T03:03:00;3.33;;;2.70;;
79243;SDS011;68672;42.676;23.356;2023-07-29T03:05:28;4.40;;;3.25;;
79243;SDS011;68672;42.676;23.356;2023-07-29T03:07:54;5.82;;;3.35;;
79243;SDS011;68672;42.676;23.356;2023-07-29T03:10:19;5.00;;;3.38;;
79243;SDS011;68672;42.676;23.356;2023-07-29T03:12:48;5.47;;;3.13;;
79243;SDS011;68672;42.676;23.356;2023-07-29T03:15:13;4.53;;;3.13;;
79243;SDS011;68672;42.676;23.356;2023-07-29T03:17:39;3.15;;;2.72;;
79243;SDS011;68672;42.676;23.356;2023-07-29T03:20:04;4.07;;;3.22;;
79243;SDS011;68672;42.676;23.356;2023-07-29T03:22:30;3.50;;;2.85;;
79243;SDS011;68672;42.676;23.356;2023-07-29T03:25:01;4.55;;;3.28;;
79243;SDS011;68672;42.676;23.356;2023-07-29T03:27:27;4.63;;;2.92;;
79243;SDS011;68672;42.676;23.356;2023-07-29T03:29:52;4.90;;;3.20;;
79243;SDS011;68672;42.676;23.356;2023-07-29T03:32:17;4.25;;;3.05;;
79243;SDS011;68672;42.676;23.356;2023-07-29T03:34:43;5.40;;;3.35;;
79243;SDS011;68672;42.676;23.356;2023-07-29T03:37:08;4.93;;;2.97;;
79243;SDS011;68672;42.676;23.356;2023-07-29T03:39:36;6.90;;;3.47;;
79243;SDS011;68672;42.676;23.356;2023-07-29T03:42:02;3.45;;;2.88;;
79243;SDS011;68672;42.676;23.356;2023-07-29T03:44:28;4.38;;;2.95;;
79243;SDS011;68672;42.676;23.356;2023-07-29T03:46:53;3.47;;;3.00;;
79243;SDS011;68672;42.676;23.356;2023-07-29T03:49:18;5.00;;;3.15;;
79243;SDS011;68672;42.676;23.356;2023-07-29T03:51:44;4.18;;;2.60;;
79243;SDS011;68672;42.676;23.356;2023-07-29T03:54:13;4.63;;;3.05;;
79243;SDS011;68672;42.676;23.356;2023-07-29T03:56:38;3.75;;;3.00;;
79243;SDS011;68672;42.676;23.356;2023-07-29T03:59:06;3.95;;;3.03;;
79243;SDS011;68672;42.676;23.356;2023-07-29T04:01:32;3.53;;;2.97;;
79243;SDS011;68672;42.676;23.356;2023-07-29T04:03:57;4.18;;;3.38;;
79243;SDS011;68672;42.676;23.356;2023-07-29T04:06:23;7.50;;;3.30;;
79243;SDS011;68672;42.676;23.356;2023-07-29T04:08:49;5.10;;;3.45;;
79243;SDS011;68672;42.676;23.356;2023-07-29T04:11:18;6.20;;;3.60;;
79243;SDS011;68672;42.676;23.356;2023-07-29T04:13:43;3.88;;;3.38;;
79243;SDS011;68672;42.676;23.356;2023-07-29T04:16:11;5.72;;;3.42;;
79243;SDS011;68672;42.676;23.356;2023-07-29T04:18:39;5.63;;;3.47;;
79243;SDS011;68672;42.676;23.356;2023-07-29T04:21:05;4.28;;;3.30;;
79243;SDS011;68672;42.676;23.356;2023-07-29T04:23:30;3.90;;;3.03;;
79243;SDS011;68672;42.676;23.356;2023-07-29T04:26:02;4.72;;;3.80;;
79243;SDS011;68672;42.676;23.356;2023-07-29T04:28:27;4.57;;;3.88;;
79243;SDS011;68672;42.676;23.356;2023-07-29T04:30:56;5.28;;;3.40;;
79243;SDS011;68672;42.676;23.356;2023-07-29T04:33:21;3.95;;;3.10;;
79243;SDS011;68672;42.676;23.356;2023-07-29T04:35:50;6.97;;;3.22;;
79243;SDS011;68672;42.676;23.356;2023-07-29T04:38:21;5.20;;;3.88;;
79243;SDS011;68672;42.676;23.356;2023-07-29T04:40:51;4.45;;;3.22;;
79243;SDS011;68672;42.676;23.356;2023-07-29T04:45:42;4.15;;;3.03;;
79243;SDS011;68672;42.676;23.356;2023-07-29T04:48:10;4.22;;;3.28;;
79243;SDS011;68672;42.676;23.356;2023-07-29T04:50:39;6.35;;;3.55;;
79243;SDS011;68672;42.676;23.356;2023-07-29T04:53:04;3.92;;;3.53;;
79243;SDS011;68672;42.676;23.356;2023-07-29T04:55:32;3.88;;;2.90;;
79243;SDS011;68672;42.676;23.356;2023-07-29T04:57:58;6.53;;;3.50;;
79243;SDS011;68672;42.676;23.356;2023-07-29T05:00:25;4.38;;;3.65;;
79243;SDS011;68672;42.676;23.356;2023-07-29T05:02:50;5.55;;;3.47;;
79243;SDS011;68672;42.676;23.356;2023-07-29T05:05:16;5.15;;;3.40;;
79243;SDS011;68672;42.676;23.356;2023-07-29T05:07:42;5.35;;;3.53;;
79243;SDS011;68672;42.676;23.356;2023-07-29T05:10:10;5.22;;;3.17;;
79243;SDS011;68672;42.676;23.356;2023-07-29T05:12:36;5.82;;;3.60;;
79243;SDS011;68672;42.676;23.356;2023-07-29T05:15:02;5.25;;;3.55;;
79243;SDS011;68672;42.676;23.356;2023-07-29T05:17:27;5.05;;;3.33;;
79243;SDS011;68672;42.676;23.356;2023-07-29T05:19:53;4.65;;;3.35;;
79243;SDS011;68672;42.676;23.356;2023-07-29T05:22:18;5.05;;;3.85;;
79243;SDS011;68672;42.676;23.356;2023-07-29T05:24:47;4.57;;;3.28;;
79243;SDS011;68672;42.676;23.356;2023-07-29T05:27:12;6.10;;;3.60;;
79243;SDS011;68672;42.676;23.356;2023-07-29T05:29:37;7.03;;;3.17;;
79243;SDS011;68672;42.676;23.356;2023-07-29T05:32:05;3.95;;;3.13;;
79243;SDS011;68672;42.676;23.356;2023-07-29T05:34:31;4.07;;;3.13;;
79243;SDS011;68672;42.676;23.356;2023-07-29T05:37:02;7.03;;;3.63;;
79243;SDS011;68672;42.676;23.356;2023-07-29T05:39:27;4.88;;;3.13;;
79243;SDS011;68672;42.676;23.356;2023-07-29T05:41:53;4.25;;;3.08;;
79243;SDS011;68672;42.676;23.356;2023-07-29T05:44:18;4.50;;;3.17;;
79243;SDS011;68672;42.676;23.356;2023-07-29T05:46:44;4.75;;;3.15;;
79243;SDS011;68672;42.676;23.356;2023-07-29T05:49:09;4.22;;;3.53;;
79243;SDS011;68672;42.676;23.356;2023-07-29T05:51:34;4.35;;;3.30;;
79243;SDS011;68672;42.676;23.356;2023-07-29T05:54:00;4.35;;;3.22;;
79243;SDS011;68672;42.676;23.356;2023-07-29T05:56:25;5.38;;;3.25;;
79243;SDS011;68672;42.676;23.356;2023-07-29T05:58:51;5.70;;;3.45;;
79243;SDS011;68672;42.676;23.356;2023-07-29T06:01:16;9.40;;;3.80;;
79243;SDS011;68672;42.676;23.356;2023-07-29T06:03:41;3.65;;;3.33;;
79243;SDS011;68672;42.676;23.356;2023-07-29T06:06:10;3.83;;;3.00;;
79243;SDS011;68672;42.676;23.356;2023-07-29T06:08:35;5.18;;;3.17;;
79243;SDS011;68672;42.676;23.356;2023-07-29T06:11:01;4.05;;;2.75;;
79243;SDS011;68672;42.676;23.356;2023-07-29T06:13:26;4.78;;;3.80;;
79243;SDS011;68672;42.676;23.356;2023-07-29T06:15:55;4.60;;;3.38;;
79243;SDS011;68672;42.676;23.356;2023-07-29T06:18:20;4.82;;;3.22;;
79243;SDS011;68672;42.676;23.356;2023-07-29T06:20:46;3.92;;;3.35;;
79243;SDS011;68672;42.676;23.356;2023-07-29T06:23:20;4.15;;;3.38;;
79243;SDS011;68672;42.676;23.356;2023-07-29T06:25:45;5.07;;;3.30;;
79243;SDS011;68672;42.676;23.356;2023-07-29T06:28:10;5.60;;;2.80;;
79243;SDS011;68672;42.676;23.356;2023-07-29T06:30:39;4.70;;;3.28;;
79243;SDS011;68672;42.676;23.356;2023-07-29T06:33:04;4.30;;;3.15;;
79243;SDS011;68672;42.676;23.356;2023-07-29T06:35:30;4.85;;;3.13;;
79243;SDS011;68672;42.676;23.356;2023-07-29T06:37:55;5.95;;;3.75;;
79243;SDS011;68672;42.676;23.356;2023-07-29T06:40:21;6.30;;;3.70;;
79243;SDS011;68672;42.676;23.356;2023-07-29T06:42:50;3.90;;;3.45;;
79243;SDS011;68672;42.676;23.356;2023-07-29T06:45:15;6.53;;;3.40;;
79243;SDS011;68672;42.676;23.356;2023-07-29T06:47:41;5.43;;;3.88;;
79243;SDS011;68672;42.676;23.356;2023-07-29T06:50:06;4.88;;;3.72;;
79243;SDS011;68672;42.676;23.356;2023-07-29T06:52:32;4.47;;;3.88;;
79243;SDS011;68672;42.676;23.356;2023-07-29T06:54:57;5.47;;;3.38;;
79243;SDS011;68672;42.676;23.356;2023-07-29T06:57:23;4.80;;;3.50;;
79243;SDS011;68672;42.676;23.356;2023-07-29T06:59:48;5.32;;;3.42;;
79243;SDS011;68672;42.676;23.356;2023-07-29T07:02:17;5.57;;;3.55;;
79243;SDS011;68672;42.676;23.356;2023-07-29T07:04:42;5.10;;;4.03;;
79243;SDS011;68672;42.676;23.356;2023-07-29T07:07:07;8.60;;;4.03;;
79243;SDS011;68672;42.676;23.356;2023-07-29T07:09:33;7.18;;;3.72;;
79243;SDS011;68672;42.676;23.356;2023-07-29T07:11:58;9.13;;;3.88;;
79243;SDS011;68672;42.676;23.356;2023-07-29T07:14:24;7.82;;;3.95;;
79243;SDS011;68672;42.676;23.356;2023-07-29T07:16:49;11.88;;;5.65;;
79243;SDS011;68672;42.676;23.356;2023-07-29T07:19:15;9.65;;;5.13;;
79243;SDS011;68672;42.676;23.356;2023-07-29T07:21:43;9.13;;;4.78;;
79243;SDS011;68672;42.676;23.356;2023-07-29T07:24:10;6.03;;;4.10;;
79243;SDS011;68672;42.676;23.356;2023-07-29T07:26:35;7.43;;;4.38;;
79243;SDS011;68672;42.676;23.356;2023-07-29T07:29:00;5.75;;;3.38;;
79243;SDS011;68672;42.676;23.356;2023-07-29T07:31:26;4.85;;;3.60;;
79243;SDS011;68672;42.676;23.356;2023-07-29T07:33:51;8.32;;;4.18;;
79243;SDS011;68672;42.676;23.356;2023-07-29T07:36:17;4.93;;;3.83;;
79243;SDS011;68672;42.676;23.356;2023-07-29T07:38:42;6.05;;;3.90;;
79243;SDS011;68672;42.676;23.356;2023-07-29T07:41:07;6.93;;;3.75;;
79243;SDS011;68672;42.676;23.356;2023-07-29T07:43:35;6.38;;;3.55;;
79243;SDS011;68672;42.676;23.356;2023-07-29T07:46:01;7.53;;;4.25;;
79243;SDS011;68672;42.676;23.356;2023-07-29T07:48:28;5.10;;;3.85;;
79243;SDS011;68672;42.676;23.356;2023-07-29T07:50:54;7.20;;;4.07;;
79243;SDS011;68672;42.676;23.356;2023-07-29T07:53:19;4.70;;;4.03;;
79243;SDS011;68672;42.676;23.356;2023-07-29T07:55:48;4.78;;;4.28;;
79243;SDS011;68672;42.676;23.356;2023-07-29T07:58:16;4.22;;;3.08;;
79243;SDS011;68672;42.676;23.356;2023-07-29T08:00:41;6.18;;;3.83;;
79243;SDS011;68672;42.676;23.356;2023-07-29T08:03:07;4.97;;;3.60;;
79243;SDS011;68672;42.676;23.356;2023-07-29T08:05:33;4.90;;;4.18;;
79243;SDS011;68672;42.676;23.356;2023-07-29T08:07:58;5.88;;;3.85;;
79243;SDS011;68672;42.676;23.356;2023-07-29T08:10:24;5.35;;;3.33;;
79243;SDS011;68672;42.676;23.356;2023-07-29T08:12:49;3.90;;;3.35;;
79243;SDS011;68672;42.676;23.356;2023-07-29T08:15:15;5.82;;;3.83;;
79243;SDS011;68672;42.676;23.356;2023-07-29T08:17:40;4.95;;;3.97;;
79243;SDS011;68672;42.676;23.356;2023-07-29T08:20:06;4.88;;;3.83;;
79243;SDS011;68672;42.676;23.356;2023-07-29T08:22:32;6.72;;;3.17;;
79243;SDS011;68672;42.676;23.356;2023-07-29T08:24:57;5.43;;;4.00;;
79243;SDS011;68672;42.676;23.356;2023-07-29T08:27:23;4.68;;;3.40;;
79243;SDS011;68672;42.676;23.356;2023-07-29T08:29:48;4.60;;;3.67;;
79243;SDS011;68672;42.676;23.356;2023-07-29T08:32:13;5.85;;;3.53;;
79243;SDS011;68672;42.676;23.356;2023-07-29T08:34:42;4.38;;;3.13;;
79243;SDS011;68672;42.676;23.356;2023-07-29T08:37:07;3.88;;;3.22;;
79243;SDS011;68672;42.676;23.356;2023-07-29T08:39:32;4.47;;;3.40;;
79243;SDS011;68672;42.676;23.356;2023-07-29T08:42:04;4.88;;;3.25;;
79243;SDS011;68672;42.676;23.356;2023-07-29T08:44:40;4.15;;;3.17;;
79243;SDS011;68672;42.676;23.356;2023-07-29T08:47:07;3.83;;;3.10;;
79243;SDS011;68672;42.676;23.356;2023-07-29T08:49:33;5.72;;;2.85;;
79243;SDS011;68672;42.676;23.356;2023-07-29T08:52:04;7.22;;;3.42;;
79243;SDS011;68672;42.676;23.356;2023-07-29T08:54:31;3.75;;;2.85;;
79243;SDS011;68672;42.676;23.356;2023-07-29T08:56:56;3.75;;;2.85;;
79243;SDS011;68672;42.676;23.356;2023-07-29T08:59:22;4.93;;;3.33;;
79243;SDS011;68672;42.676;23.356;2023-07-29T09:01:48;4.18;;;2.83;;
79243;SDS011;68672;42.676;23.356;2023-07-29T09:04:16;3.25;;;2.40;;
79243;SDS011;68672;42.676;23.356;2023-07-29T09:06:43;3.53;;;2.67;;
79243;SDS011;68672;42.676;23.356;2023-07-29T09:09:09;5.80;;;3.00;;
79243;SDS011;68672;42.676;23.356;2023-07-29T09:11:35;3.30;;;2.25;;
79243;SDS011;68672;42.676;23.356;2023-07-29T09:14:05;3.47;;;2.45;;
79243;SDS011;68672;42.676;23.356;2023-07-29T09:16:31;4.60;;;2.38;;
79243;SDS011;68672;42.676;23.356;2023-07-29T09:19:01;3.55;;;2.65;;
79243;SDS011;68672;42.676;23.356;2023-07-29T09:21:28;4.88;;;2.88;;
79243;SDS011;68672;42.676;23.356;2023-07-29T09:23:56;3.83;;;2.60;;
79243;SDS011;68672;42.676;23.356;2023-07-29T09:26:28;3.08;;;2.20;;
79243;SDS011;68672;42.676;23.356;2023-07-29T09:28:54;3.47;;;2.10;;
79243;SDS011;68672;42.676;23.356;2023-07-29T09:31:21;2.53;;;2.00;;
79243;SDS011;68672;42.676;23.356;2023-07-29T09:33:48;2.58;;;1.90;;
79243;SDS011;68672;42.676;23.356;2023-07-29T09:36:14;2.88;;;2.20;;
79243;SDS011;68672;42.676;23.356;2023-07-29T09:38:39;4.50;;;2.10;;
79243;SDS011;68672;42.676;23.356;2023-07-29T09:41:09;2.75;;;2.00;;
79243;SDS011;68672;42.676;23.356;2023-07-29T09:43:38;3.20;;;2.13;;
79243;SDS011;68672;42.676;23.356;2023-07-29T09:46:04;2.53;;;2.10;;
79243;SDS011;68672;42.676;23.356;2023-07-29T09:48:39;2.53;;;1.92;;
79243;SDS011;68672;42.676;23.356;2023-07-29T09:51:10;4.97;;;2.00;;
79243;SDS011;68672;42.676;23.356;2023-07-29T09:53:43;2.80;;;2.00;;
79243;SDS011;68672;42.676;23.356;2023-07-29T09:56:09;2.75;;;1.98;;
79243;SDS011;68672;42.676;23.356;2023-07-29T10:01:04;3.00;;;1.95;;
79243;SDS011;68672;42.676;23.356;2023-07-29T10:03:31;3.03;;;1.73;;
79243;SDS011;68672;42.676;23.356;2023-07-29T10:05:59;2.55;;;2.00;;
79243;SDS011;68672;42.676;23.356;2023-07-29T10:08:26;2.53;;;1.85;;
79243;SDS011;68672;42.676;23.356;2023-07-29T10:10:53;2.47;;;1.85;;
79243;SDS011;68672;42.676;23.356;2023-07-29T10:13:20;3.78;;;2.45;;
79243;SDS011;68672;42.676;23.356;2023-07-29T10:15:45;2.13;;;1.60;;
79243;SDS011;68672;42.676;23.356;2023-07-29T10:18:12;3.38;;;1.83;;
79243;SDS011;68672;42.676;23.356;2023-07-29T10:20:38;2.20;;;1.65;;
79243;SDS011;68672;42.676;23.356;2023-07-29T10:23:05;2.08;;;1.60;;
79243;SDS011;68672;42.676;23.356;2023-07-29T10:25:39;2.47;;;1.50;;
79243;SDS011;68672;42.676;23.356;2023-07-29T10:28:15;2.13;;;1.70;;
79243;SDS011;68672;42.676;23.356;2023-07-29T10:30:45;2.00;;;1.42;;
79243;SDS011;68672;42.676;23.356;2023-07-29T10:33:14;2.28;;;1.83;;
79243;SDS011;68672;42.676;23.356;2023-07-29T10:35:40;2.90;;;1.67;;
79243;SDS011;68672;42.676;23.356;2023-07-29T10:38:06;2.13;;;1.42;;
79243;SDS011;68672;42.676;23.356;2023-07-29T10:40:51;2.83;;;1.80;;
79243;SDS011;68672;42.676;23.356;2023-07-29T10:43:39;2.30;;;1.73;;
79243;SDS011;68672;42.676;23.356;2023-07-29T10:46:17;2.33;;;1.60;;
79243;SDS011;68672;42.676;23.356;2023-07-29T10:48:52;2.70;;;2.08;;
79243;SDS011;68672;42.676;23.356;2023-07-29T10:51:29;2.25;;;1.52;;
79243;SDS011;68672;42.676;23.356;2023-07-29T10:54:15;2.08;;;1.63;;
79243;SDS011;68672;42.676;23.356;2023-07-29T10:56:46;2.30;;;1.65;;
79243;SDS011;68672;42.676;23.356;2023-07-29T11:01:51;1.80;;;1.45;;
79243;SDS011;68672;42.676;23.356;2023-07-29T11:17:56;2.10;;;1.30;;
79243;SDS011;68672;42.676;23.356;2023-07-29T11:20:23;1.73;;;1.40;;
79243;SDS011;68672;42.676;23.356;2023-07-29T11:22:56;1.88;;;1.42;;
79243;SDS011;68672;42.676;23.356;2023-07-29T11:25:24;2.13;;;1.33;;
79243;SDS011;68672;42.676;23.356;2023-07-29T11:27:52;2.15;;;1.30;;
79243;SDS011;68672;42.676;23.356;2023-07-29T11:30:24;2.00;;;1.58;;
79243;SDS011;68672;42.676;23.356;2023-07-29T11:32:52;2.38;;;1.52;;
79243;SDS011;68672;42.676;23.356;2023-07-29T11:35:19;2.08;;;1.50;;
79243;SDS011;68672;42.676;23.356;2023-07-29T11:37:51;1.75;;;1.33;;
79243;SDS011;68672;42.676;23.356;2023-07-29T11:40:21;2.30;;;1.38;;
79243;SDS011;68672;42.676;23.356;2023-07-29T11:42:48;2.00;;;1.23;;
79243;SDS011;68672;42.676;23.356;2023-07-29T11:45:17;2.50;;;1.77;;
79243;SDS011;68672;42.676;23.356;2023-07-29T11:47:46;2.20;;;1.90;;
79243;SDS011;68672;42.676;23.356;2023-07-29T11:50:12;2.58;;;1.80;;
79243;SDS011;68672;42.676;23.356;2023-07-29T11:52:42;2.40;;;1.60;;
79243;SDS011;68672;42.676;23.356;2023-07-29T11:55:09;2.38;;;1.58;;
79243;SDS011;68672;42.676;23.356;2023-07-29T11:57:38;2.20;;;1.50;;
79243;SDS011;68672;42.676;23.356;2023-07-29T12:00:05;2.03;;;1.63;;
79243;SDS011;68672;42.676;23.356;2023-07-29T12:02:36;1.67;;;1.33;;
79243;SDS011;68672;42.676;23.356;2023-07-29T12:05:06;2.28;;;1.55;;
79243;SDS011;68672;42.676;23.356;2023-07-29T12:07:33;2.33;;;1.55;;
79243;SDS011;68672;42.676;23.356;2023-07-29T12:09:59;2.58;;;1.33;;
79243;SDS011;68672;42.676;23.356;2023-07-29T12:12:24;2.63;;;1.60;;
79243;SDS011;68672;42.676;23.356;2023-07-29T12:14:50;2.03;;;1.40;;
79243;SDS011;68672;42.676;23.356;2023-07-29T12:17:16;1.95;;;1.40;;
79243;SDS011;68672;42.676;23.356;2023-07-29T12:19:41;1.67;;;1.30;;
79243;SDS011;68672;42.676;23.356;2023-07-29T12:22:08;1.90;;;1.40;;
79243;SDS011;68672;42.676;23.356;2023-07-29T12:24:38;2.35;;;1.45;;
79243;SDS011;68672;42.676;23.356;2023-07-29T12:27:06;2.38;;;1.60;;
79243;SDS011;68672;42.676;23.356;2023-07-29T12:29:39;2.20;;;1.50;;
79243;SDS011;68672;42.676;23.356;2023-07-29T12:32:06;3.08;;;1.67;;
79243;SDS011;68672;42.676;23.356;2023-07-29T12:34:31;3.03;;;1.65;;
79243;SDS011;68672;42.676;23.356;2023-07-29T12:36:58;2.55;;;1.90;;
79243;SDS011;68672;42.676;23.356;2023-07-29T12:39:27;2.63;;;1.83;;
79243;SDS011;68672;42.676;23.356;2023-07-29T12:41:57;2.92;;;1.85;;
79243;SDS011;68672;42.676;23.356;2023-07-29T12:44:37;2.42;;;1.70;;
79243;SDS011;68672;42.676;23.356;2023-07-29T12:47:03;2.85;;;2.03;;
79243;SDS011;68672;42.676;23.356;2023-07-29T12:49:31;2.47;;;1.70;;
79243;SDS011;68672;42.676;23.356;2023-07-29T12:51:57;2.85;;;1.90;;
79243;SDS011;68672;42.676;23.356;2023-07-29T12:54:25;2.65;;;1.80;;
79243;SDS011;68672;42.676;23.356;2023-07-29T12:56:51;2.22;;;1.58;;
79243;SDS011;68672;42.676;23.356;2023-07-29T12:59:16;2.25;;;1.70;;
79243;SDS011;68672;42.676;23.356;2023-07-29T13:01:42;3.47;;;1.92;;
79243;SDS011;68672;42.676;23.356;2023-07-29T13:04:07;2.53;;;1.83;;
79243;SDS011;68672;42.676;23.356;2023-07-29T13:06:34;2.40;;;1.60;;
79243;SDS011;68672;42.676;23.356;2023-07-29T13:08:59;2.75;;;1.67;;
79243;SDS011;68672;42.676;23.356;2023-07-29T13:11:24;3.03;;;2.08;;
79243;SDS011;68672;42.676;23.356;2023-07-29T13:13:51;2.40;;;1.63;;
79243;SDS011;68672;42.676;23.356;2023-07-29T13:16:16;2.67;;;1.58;;
79243;SDS011;68672;42.676;23.356;2023-07-29T13:18:44;3.22;;;1.80;;
79243;SDS011;68672;42.676;23.356;2023-07-29T13:21:10;2.05;;;1.42;;
79243;SDS011;68672;42.676;23.356;2023-07-29T13:23:38;2.53;;;1.83;;
79243;SDS011;68672;42.676;23.356;2023-07-29T13:26:03;2.50;;;1.77;;
79243;SDS011;68672;42.676;23.356;2023-07-29T13:28:29;2.38;;;1.58;;
79243;SDS011;68672;42.676;23.356;2023-07-29T13:30:54;2.30;;;1.73;;
79243;SDS011;68672;42.676;23.356;2023-07-29T13:33:20;2.25;;;1.50;;
79243;SDS011;68672;42.676;23.356;2023-07-29T13:35:46;3.60;;;1.70;;
79243;SDS011;68672;42.676;23.356;2023-07-29T13:38:11;2.20;;;1.40;;
79243;SDS011;68672;42.676;23.356;2023-07-29T13:40:36;3.22;;;1.85;;
79243;SDS011;68672;42.676;23.356;2023-07-29T13:43:02;2.40;;;1.70;;
79243;SDS011;68672;42.676;23.356;2023-07-29T13:45:27;2.38;;;1.80;;
79243;SDS011;68672;42.676;23.356;2023-07-29T13:47:53;2.95;;;1.63;;
79243;SDS011;68672;42.676;23.356;2023-07-29T13:50:18;3.00;;;1.73;;
79243;SDS011;68672;42.676;23.356;2023-07-29T13:52:44;1.95;;;1.45;;
79243;SDS011;68672;42.676;23.356;2023-07-29T13:55:10;2.60;;;1.60;;
79243;SDS011;68672;42.676;23.356;2023-07-29T13:57:36;2.33;;;1.63;;
79243;SDS011;68672;42.676;23.356;2023-07-29T14:00:02;2.63;;;1.65;;
79243;SDS011;68672;42.676;23.356;2023-07-29T14:02:28;2.83;;;1.90;;
79243;SDS011;68672;42.676;23.356;2023-07-29T14:04:56;3.35;;;1.85;;
79243;SDS011;68672;42.676;23.356;2023-07-29T14:07:21;2.72;;;1.63;;
79243;SDS011;68672;42.676;23.356;2023-07-29T14:09:46;2.80;;;1.65;;
79243;SDS011;68672;42.676;23.356;2023-07-29T14:12:12;2.38;;;1.60;;
79243;SDS011;68672;42.676;23.356;2023-07-29T14:14:40;2.97;;;1.75;;
79243;SDS011;68672;42.676;23.356;2023-07-29T14:17:06;2.33;;;1.90;;
79243;SDS011;68672;42.676;23.356;2023-07-29T14:19:33;2.00;;;1.40;;
79243;SDS011;68672;42.676;23.356;2023-07-29T14:21:59;2.75;;;1.80;;
79243;SDS011;68672;42.676;23.356;2023-07-29T14:24:27;3.88;;;2.13;;
79243;SDS011;68672;42.676;23.356;2023-07-29T14:26:55;2.70;;;1.88;;
79243;SDS011;68672;42.676;23.356;2023-07-29T14:29:21;2.50;;;1.80;;
79243;SDS011;68672;42.676;23.356;2023-07-29T14:31:46;1.90;;;1.42;;
79243;SDS011;68672;42.676;23.356;2023-07-29T14:34:12;3.88;;;1.85;;
79243;SDS011;68672;42.676;23.356;2023-07-29T14:36:38;4.88;;;2.25;;
79243;SDS011;68672;42.676;23.356;2023-07-29T14:39:03;4.80;;;2.35;;
79243;SDS011;68672;42.676;23.356;2023-07-29T14:41:29;4.20;;;2.30;;
79243;SDS011;68672;42.676;23.356;2023-07-29T14:43:55;2.10;;;1.60;;
79243;SDS011;68672;42.676;23.356;2023-07-29T14:46:21;5.10;;;2.53;;
79243;SDS011;68672;42.676;23.356;2023-07-29T14:48:46;4.28;;;2.80;;
79243;SDS011;68672;42.676;23.356;2023-07-29T14:51:12;4.80;;;2.30;;
79243;SDS011;68672;42.676;23.356;2023-07-29T14:53:37;3.53;;;2.10;;
79243;SDS011;68672;42.676;23.356;2023-07-29T14:56:03;3.35;;;2.08;;
79243;SDS011;68672;42.676;23.356;2023-07-29T14:58:29;2.53;;;1.85;;
79243;SDS011;68672;42.676;23.356;2023-07-29T15:00:55;3.30;;;2.28;;
79243;SDS011;68672;42.676;23.356;2023-07-29T15:03:20;2.92;;;2.20;;
79243;SDS011;68672;42.676;23.356;2023-07-29T15:05:46;3.42;;;2.10;;